sensor_id;sensor_type;location;lat;lon;timestamp;P1;durP1;ratioP1;P2;durP2;ratioP2
24337;SDS011;12457;50.832;4.346;2022-09-11T00:01:13;42.10;;;22.48;;
24337;SDS011;12457;50.832;4.346;2022-09-11T00:03:41;41.70;;;21.77;;
24337;SDS011;12457;50.832;4.346;2022-09-11T00:06:09;53.28;;;24.50;;
24337;SDS011;12457;50.832;4.346;2022-09-11T00:08:41;42.97;;;23.55;;
24337;SDS011;12457;50.832;4.346;2022-09-11T00:11:15;38.92;;;23.05;;
24337;SDS011;12457;50.832;4.346;2022-09-11T00:13:43;44.80;;;24.35;;
24337;SDS011;12457;50.832;4.346;2022-09-11T00:16:44;51.60;;;23.45;;
24337;SDS011;12457;50.832;4.346;2022-09-11T00:19:08;38.22;;;23.17;;
24337;SDS011;12457;50.832;4.346;2022-09-11T00:21:36;42.67;;;22.67;;
24337;SDS011;12457;50.832;4.346;2022-09-11T00:24:03;46.55;;;22.92;;
24337;SDS011;12457;50.832;4.346;2022-09-11T00:26:30;41.42;;;23.13;;
24337;SDS011;12457;50.832;4.346;2022-09-11T00:28:56;47.47;;;24.08;;
24337;SDS011;12457;50.832;4.346;2022-09-11T00:31:23;47.35;;;27.05;;
24337;SDS011;12457;50.832;4.346;2022-09-11T00:33:51;41.60;;;24.38;;
24337;SDS011;12457;50.832;4.346;2022-09-11T00:36:20;39.53;;;24.15;;
24337;SDS011;12457;50.832;4.346;2022-09-11T00:38:51;44.85;;;24.75;;
24337;SDS011;12457;50.832;4.346;2022-09-11T00:41:21;44.58;;;26.67;;
24337;SDS011;12457;50.832;4.346;2022-09-11T00:43:54;48.08;;;25.73;;
24337;SDS011;12457;50.832;4.346;2022-09-11T00:49:13;48.78;;;25.63;;
24337;SDS011;12457;50.832;4.346;2022-09-11T00:51:40;53.20;;;25.40;;
24337;SDS011;12457;50.832;4.346;2022-09-11T00:54:08;53.03;;;25.60;;
24337;SDS011;12457;50.832;4.346;2022-09-11T00:56:37;51.90;;;27.20;;
24337;SDS011;12457;50.832;4.346;2022-09-11T00:59:06;60.40;;;27.77;;
24337;SDS011;12457;50.832;4.346;2022-09-11T01:01:32;58.30;;;28.02;;
24337;SDS011;12457;50.832;4.346;2022-09-11T01:04:02;56.20;;;28.95;;
24337;SDS011;12457;50.832;4.346;2022-09-11T01:06:29;52.28;;;28.63;;
24337;SDS011;12457;50.832;4.346;2022-09-11T01:08:56;60.05;;;30.50;;
24337;SDS011;12457;50.832;4.346;2022-09-11T01:11:30;55.00;;;28.92;;
24337;SDS011;12457;50.832;4.346;2022-09-11T01:14:08;63.72;;;29.17;;
24337;SDS011;12457;50.832;4.346;2022-09-11T01:16:49;63.28;;;30.30;;
24337;SDS011;12457;50.832;4.346;2022-09-11T01:19:26;64.90;;;30.95;;
24337;SDS011;12457;50.832;4.346;2022-09-11T01:28:19;61.60;;;31.10;;
24337;SDS011;12457;50.832;4.346;2022-09-11T01:30:56;65.22;;;30.77;;
24337;SDS011;12457;50.832;4.346;2022-09-11T01:38:39;51.90;;;27.23;;
24337;SDS011;12457;50.832;4.346;2022-09-11T01:41:26;52.22;;;27.30;;
24337;SDS011;12457;50.832;4.346;2022-09-11T01:43:56;44.58;;;26.10;;
24337;SDS011;12457;50.832;4.346;2022-09-11T01:49:00;48.55;;;26.92;;
24337;SDS011;12457;50.832;4.346;2022-09-11T01:51:33;48.80;;;26.80;;
24337;SDS011;12457;50.832;4.346;2022-09-11T01:54:15;37.15;;;25.45;;
24337;SDS011;12457;50.832;4.346;2022-09-11T01:56:45;47.25;;;25.38;;
24337;SDS011;12457;50.832;4.346;2022-09-11T01:59:27;52.40;;;27.70;;
24337;SDS011;12457;50.832;4.346;2022-09-11T02:02:07;59.30;;;30.63;;
24337;SDS011;12457;50.832;4.346;2022-09-11T02:04:38;71.40;;;31.95;;
24337;SDS011;12457;50.832;4.346;2022-09-11T02:07:11;75.97;;;34.92;;
24337;SDS011;12457;50.832;4.346;2022-09-11T02:09:46;57.50;;;29.35;;
24337;SDS011;12457;50.832;4.346;2022-09-11T02:12:26;58.90;;;30.02;;
24337;SDS011;12457;50.832;4.346;2022-09-11T02:14:57;54.28;;;30.85;;
24337;SDS011;12457;50.832;4.346;2022-09-11T02:19:55;61.67;;;31.33;;
24337;SDS011;12457;50.832;4.346;2022-09-11T02:22:24;66.05;;;29.90;;
24337;SDS011;12457;50.832;4.346;2022-09-11T02:24:50;53.88;;;29.13;;
24337;SDS011;12457;50.832;4.346;2022-09-11T02:27:20;54.55;;;29.15;;
24337;SDS011;12457;50.832;4.346;2022-09-11T02:29:48;61.30;;;30.48;;
24337;SDS011;12457;50.832;4.346;2022-09-11T02:32:14;58.35;;;30.42;;
24337;SDS011;12457;50.832;4.346;2022-09-11T02:34:42;65.80;;;31.13;;
24337;SDS011;12457;50.832;4.346;2022-09-11T02:37:13;55.88;;;29.63;;
24337;SDS011;12457;50.832;4.346;2022-09-11T02:40:24;63.90;;;31.00;;
24337;SDS011;12457;50.832;4.346;2022-09-11T02:43:23;59.55;;;31.52;;
24337;SDS011;12457;50.832;4.346;2022-09-11T02:46:23;74.30;;;32.22;;
24337;SDS011;12457;50.832;4.346;2022-09-11T02:51:48;73.07;;;33.00;;
24337;SDS011;12457;50.832;4.346;2022-09-11T02:57:29;60.15;;;30.92;;
24337;SDS011;12457;50.832;4.346;2022-09-11T03:00:04;69.30;;;32.72;;
24337;SDS011;12457;50.832;4.346;2022-09-11T03:02:34;76.82;;;34.10;;
24337;SDS011;12457;50.832;4.346;2022-09-11T03:05:08;68.47;;;32.83;;
24337;SDS011;12457;50.832;4.346;2022-09-11T03:07:35;77.50;;;35.33;;
24337;SDS011;12457;50.832;4.346;2022-09-11T03:10:01;76.55;;;34.25;;
24337;SDS011;12457;50.832;4.346;2022-09-11T03:12:31;81.57;;;37.90;;
24337;SDS011;12457;50.832;4.346;2022-09-11T03:14:59;90.22;;;37.38;;
24337;SDS011;12457;50.832;4.346;2022-09-11T03:17:26;107.20;;;40.25;;
24337;SDS011;12457;50.832;4.346;2022-09-11T03:19:51;100.18;;;39.20;;
24337;SDS011;12457;50.832;4.346;2022-09-11T03:22:17;94.53;;;38.97;;
24337;SDS011;12457;50.832;4.346;2022-09-11T03:24:44;87.75;;;39.67;;
24337;SDS011;12457;50.832;4.346;2022-09-11T03:27:10;108.63;;;40.65;;
24337;SDS011;12457;50.832;4.346;2022-09-11T03:29:37;107.68;;;40.75;;
24337;SDS011;12457;50.832;4.346;2022-09-11T03:32:02;93.38;;;40.90;;
24337;SDS011;12457;50.832;4.346;2022-09-11T03:34:28;90.88;;;39.55;;
24337;SDS011;12457;50.832;4.346;2022-09-11T03:36:54;104.05;;;38.38;;
24337;SDS011;12457;50.832;4.346;2022-09-11T03:39:19;113.88;;;37.15;;
24337;SDS011;12457;50.832;4.346;2022-09-11T03:41:45;101.43;;;37.03;;
24337;SDS011;12457;50.832;4.346;2022-09-11T03:44:11;123.10;;;36.72;;
24337;SDS011;12457;50.832;4.346;2022-09-11T03:46:37;178.15;;;37.55;;
24337;SDS011;12457;50.832;4.346;2022-09-11T03:49:03;137.27;;;36.30;;
24337;SDS011;12457;50.832;4.346;2022-09-11T03:51:30;102.68;;;34.03;;
24337;SDS011;12457;50.832;4.346;2022-09-11T03:53:59;88.60;;;34.10;;
24337;SDS011;12457;50.832;4.346;2022-09-11T03:56:29;143.90;;;33.65;;
24337;SDS011;12457;50.832;4.346;2022-09-11T03:58:55;182.82;;;35.22;;
24337;SDS011;12457;50.832;4.346;2022-09-11T04:01:22;74.55;;;34.60;;
24337;SDS011;12457;50.832;4.346;2022-09-11T04:04:09;127.78;;;34.53;;
24337;SDS011;12457;50.832;4.346;2022-09-11T04:06:38;102.75;;;34.38;;
24337;SDS011;12457;50.832;4.346;2022-09-11T04:09:04;159.65;;;32.33;;
24337;SDS011;12457;50.832;4.346;2022-09-11T04:11:34;71.85;;;32.55;;
24337;SDS011;12457;50.832;4.346;2022-09-11T04:14:03;134.07;;;30.70;;
24337;SDS011;12457;50.832;4.346;2022-09-11T04:16:29;155.82;;;28.88;;
24337;SDS011;12457;50.832;4.346;2022-09-11T04:18:57;99.10;;;28.00;;
24337;SDS011;12457;50.832;4.346;2022-09-11T04:21:24;116.45;;;28.52;;
24337;SDS011;12457;50.832;4.346;2022-09-11T04:23:52;162.55;;;31.40;;
24337;SDS011;12457;50.832;4.346;2022-09-11T04:26:20;193.75;;;29.75;;
24337;SDS011;12457;50.832;4.346;2022-09-11T04:28:48;86.63;;;27.70;;
24337;SDS011;12457;50.832;4.346;2022-09-11T04:31:15;106.13;;;30.52;;
24337;SDS011;12457;50.832;4.346;2022-09-11T04:33:42;147.98;;;32.28;;
24337;SDS011;12457;50.832;4.346;2022-09-11T04:36:10;327.23;;;34.95;;
24337;SDS011;12457;50.832;4.346;2022-09-11T04:38:38;161.35;;;32.92;;
24337;SDS011;12457;50.832;4.346;2022-09-11T04:41:07;226.00;;;32.97;;
24337;SDS011;12457;50.832;4.346;2022-09-11T04:43:34;239.27;;;34.22;;
24337;SDS011;12457;50.832;4.346;2022-09-11T04:46:01;251.68;;;35.28;;
24337;SDS011;12457;50.832;4.346;2022-09-11T04:48:28;335.67;;;37.95;;
24337;SDS011;12457;50.832;4.346;2022-09-11T04:51:02;194.43;;;34.90;;
24337;SDS011;12457;50.832;4.346;2022-09-11T04:53:32;141.45;;;35.30;;
24337;SDS011;12457;50.832;4.346;2022-09-11T04:56:06;198.38;;;36.90;;
24337;SDS011;12457;50.832;4.346;2022-09-11T04:58:34;126.93;;;34.05;;
24337;SDS011;12457;50.832;4.346;2022-09-11T05:01:04;152.98;;;36.60;;
24337;SDS011;12457;50.832;4.346;2022-09-11T05:03:34;176.23;;;35.42;;
24337;SDS011;12457;50.832;4.346;2022-09-11T05:06:03;124.05;;;35.47;;
24337;SDS011;12457;50.832;4.346;2022-09-11T05:08:30;195.27;;;36.58;;
24337;SDS011;12457;50.832;4.346;2022-09-11T05:10:57;120.82;;;36.33;;
24337;SDS011;12457;50.832;4.346;2022-09-11T05:13:24;163.70;;;37.03;;
24337;SDS011;12457;50.832;4.346;2022-09-11T05:15:51;94.43;;;37.97;;
24337;SDS011;12457;50.832;4.346;2022-09-11T05:18:17;103.82;;;38.50;;
24337;SDS011;12457;50.832;4.346;2022-09-11T05:20:43;154.20;;;37.38;;
24337;SDS011;12457;50.832;4.346;2022-09-11T05:23:12;117.95;;;38.03;;
24337;SDS011;12457;50.832;4.346;2022-09-11T05:25:38;152.55;;;37.33;;
24337;SDS011;12457;50.832;4.346;2022-09-11T05:28:04;96.00;;;39.70;;
24337;SDS011;12457;50.832;4.346;2022-09-11T05:30:30;142.38;;;37.33;;
24337;SDS011;12457;50.832;4.346;2022-09-11T05:32:56;126.47;;;37.97;;
24337;SDS011;12457;50.832;4.346;2022-09-11T05:35:22;148.07;;;36.53;;
24337;SDS011;12457;50.832;4.346;2022-09-11T05:37:48;221.82;;;39.15;;
24337;SDS011;12457;50.832;4.346;2022-09-11T05:40:14;141.23;;;38.75;;
24337;SDS011;12457;50.832;4.346;2022-09-11T05:42:40;180.00;;;41.25;;
24337;SDS011;12457;50.832;4.346;2022-09-11T05:45:06;300.70;;;41.17;;
24337;SDS011;12457;50.832;4.346;2022-09-11T05:47:32;328.52;;;42.10;;
24337;SDS011;12457;50.832;4.346;2022-09-11T05:49:58;170.68;;;40.50;;
24337;SDS011;12457;50.832;4.346;2022-09-11T05:52:23;152.68;;;40.30;;
24337;SDS011;12457;50.832;4.346;2022-09-11T05:54:49;228.05;;;40.92;;
24337;SDS011;12457;50.832;4.346;2022-09-11T05:57:19;118.90;;;40.63;;
24337;SDS011;12457;50.832;4.346;2022-09-11T05:59:45;175.18;;;40.97;;
24337;SDS011;12457;50.832;4.346;2022-09-11T06:02:10;156.90;;;40.20;;
24337;SDS011;12457;50.832;4.346;2022-09-11T06:04:48;115.47;;;40.03;;
24337;SDS011;12457;50.832;4.346;2022-09-11T06:07:16;145.05;;;40.13;;
24337;SDS011;12457;50.832;4.346;2022-09-11T06:09:42;171.73;;;37.53;;
24337;SDS011;12457;50.832;4.346;2022-09-11T06:12:08;159.65;;;35.03;;
24337;SDS011;12457;50.832;4.346;2022-09-11T06:14:36;164.93;;;38.03;;
24337;SDS011;12457;50.832;4.346;2022-09-11T06:17:02;92.57;;;37.30;;
24337;SDS011;12457;50.832;4.346;2022-09-11T06:19:28;87.88;;;36.88;;
24337;SDS011;12457;50.832;4.346;2022-09-11T06:21:54;120.75;;;35.78;;
24337;SDS011;12457;50.832;4.346;2022-09-11T06:24:22;108.82;;;37.15;;
24337;SDS011;12457;50.832;4.346;2022-09-11T06:26:57;110.13;;;37.63;;
24337;SDS011;12457;50.832;4.346;2022-09-11T06:29:24;166.70;;;38.30;;
24337;SDS011;12457;50.832;4.346;2022-09-11T06:31:50;115.10;;;38.72;;
24337;SDS011;12457;50.832;4.346;2022-09-11T06:34:19;94.90;;;43.80;;
24337;SDS011;12457;50.832;4.346;2022-09-11T06:36:48;74.53;;;39.45;;
24337;SDS011;12457;50.832;4.346;2022-09-11T06:39:16;69.57;;;37.40;;
24337;SDS011;12457;50.832;4.346;2022-09-11T06:41:44;63.83;;;37.10;;
24337;SDS011;12457;50.832;4.346;2022-09-11T06:44:10;66.55;;;37.58;;
24337;SDS011;12457;50.832;4.346;2022-09-11T06:46:37;76.78;;;37.00;;
24337;SDS011;12457;50.832;4.346;2022-09-11T06:49:04;77.35;;;34.75;;
24337;SDS011;12457;50.832;4.346;2022-09-11T06:51:30;55.40;;;33.35;;
24337;SDS011;12457;50.832;4.346;2022-09-11T06:53:56;71.50;;;37.53;;
24337;SDS011;12457;50.832;4.346;2022-09-11T06:56:28;63.63;;;37.28;;
24337;SDS011;12457;50.832;4.346;2022-09-11T06:58:56;66.40;;;35.75;;
24337;SDS011;12457;50.832;4.346;2022-09-11T07:01:22;74.70;;;33.47;;
24337;SDS011;12457;50.832;4.346;2022-09-11T07:03:49;69.65;;;34.80;;
24337;SDS011;12457;50.832;4.346;2022-09-11T07:06:17;77.38;;;36.63;;
24337;SDS011;12457;50.832;4.346;2022-09-11T07:08:48;99.18;;;34.15;;
24337;SDS011;12457;50.832;4.346;2022-09-11T07:11:16;55.63;;;35.35;;
24337;SDS011;12457;50.832;4.346;2022-09-11T07:13:42;93.80;;;32.83;;
24337;SDS011;12457;50.832;4.346;2022-09-11T07:16:08;51.53;;;31.48;;
24337;SDS011;12457;50.832;4.346;2022-09-11T07:18:41;51.90;;;30.55;;
24337;SDS011;12457;50.832;4.346;2022-09-11T07:21:12;67.00;;;32.40;;
24337;SDS011;12457;50.832;4.346;2022-09-11T07:23:40;58.53;;;35.03;;
24337;SDS011;12457;50.832;4.346;2022-09-11T07:26:11;58.20;;;30.30;;
24337;SDS011;12457;50.832;4.346;2022-09-11T07:28:37;57.60;;;32.13;;
24337;SDS011;12457;50.832;4.346;2022-09-11T07:31:08;51.00;;;32.40;;
24337;SDS011;12457;50.832;4.346;2022-09-11T07:33:46;50.28;;;31.73;;
24337;SDS011;12457;50.832;4.346;2022-09-11T07:38:41;50.03;;;31.73;;
24337;SDS011;12457;50.832;4.346;2022-09-11T07:41:08;47.78;;;31.23;;
24337;SDS011;12457;50.832;4.346;2022-09-11T07:43:35;52.22;;;32.78;;
24337;SDS011;12457;50.832;4.346;2022-09-11T07:46:04;47.35;;;30.98;;
24337;SDS011;12457;50.832;4.346;2022-09-11T07:48:30;64.68;;;40.92;;
24337;SDS011;12457;50.832;4.346;2022-09-11T07:50:57;56.47;;;36.22;;
24337;SDS011;12457;50.832;4.346;2022-09-11T07:53:26;64.03;;;36.33;;
24337;SDS011;12457;50.832;4.346;2022-09-11T07:56:05;58.10;;;36.83;;
24337;SDS011;12457;50.832;4.346;2022-09-11T07:58:43;54.20;;;32.80;;
24337;SDS011;12457;50.832;4.346;2022-09-11T08:01:16;60.03;;;38.63;;
24337;SDS011;12457;50.832;4.346;2022-09-11T08:03:44;60.42;;;37.38;;
24337;SDS011;12457;50.832;4.346;2022-09-11T08:06:10;50.42;;;32.83;;
24337;SDS011;12457;50.832;4.346;2022-09-11T08:08:38;46.42;;;32.85;;
24337;SDS011;12457;50.832;4.346;2022-09-11T08:11:06;39.83;;;29.60;;
24337;SDS011;12457;50.832;4.346;2022-09-11T08:13:33;47.70;;;29.50;;
24337;SDS011;12457;50.832;4.346;2022-09-11T08:15:59;47.72;;;30.77;;
24337;SDS011;12457;50.832;4.346;2022-09-11T08:18:25;44.75;;;28.95;;
24337;SDS011;12457;50.832;4.346;2022-09-11T08:20:51;51.38;;;32.75;;
24337;SDS011;12457;50.832;4.346;2022-09-11T08:23:25;42.03;;;30.08;;
24337;SDS011;12457;50.832;4.346;2022-09-11T08:25:52;39.40;;;28.42;;
24337;SDS011;12457;50.832;4.346;2022-09-11T08:28:18;39.30;;;28.70;;
24337;SDS011;12457;50.832;4.346;2022-09-11T08:30:48;37.03;;;28.02;;
24337;SDS011;12457;50.832;4.346;2022-09-11T08:33:20;41.45;;;28.50;;
24337;SDS011;12457;50.832;4.346;2022-09-11T08:35:46;41.33;;;28.25;;
24337;SDS011;12457;50.832;4.346;2022-09-11T08:38:11;41.90;;;28.83;;
24337;SDS011;12457;50.832;4.346;2022-09-11T08:40:40;40.05;;;29.00;;
24337;SDS011;12457;50.832;4.346;2022-09-11T08:43:07;40.78;;;29.60;;
24337;SDS011;12457;50.832;4.346;2022-09-11T08:45:53;40.80;;;30.23;;
24337;SDS011;12457;50.832;4.346;2022-09-11T08:48:27;49.05;;;31.55;;
24337;SDS011;12457;50.832;4.346;2022-09-11T08:51:10;42.63;;;31.15;;
24337;SDS011;12457;50.832;4.346;2022-09-11T08:53:39;45.78;;;32.13;;
24337;SDS011;12457;50.832;4.346;2022-09-11T08:56:09;48.53;;;33.28;;
24337;SDS011;12457;50.832;4.346;2022-09-11T09:01:59;50.10;;;33.22;;
24337;SDS011;12457;50.832;4.346;2022-09-11T09:10:21;50.72;;;34.65;;
24337;SDS011;12457;50.832;4.346;2022-09-11T09:18:40;49.20;;;35.90;;
24337;SDS011;12457;50.832;4.346;2022-09-11T09:21:12;76.18;;;57.70;;
24337;SDS011;12457;50.832;4.346;2022-09-11T09:23:40;50.65;;;34.45;;
24337;SDS011;12457;50.832;4.346;2022-09-11T09:26:35;39.75;;;29.85;;
24337;SDS011;12457;50.832;4.346;2022-09-11T09:29:05;36.40;;;27.27;;
24337;SDS011;12457;50.832;4.346;2022-09-11T09:31:38;37.78;;;27.90;;
24337;SDS011;12457;50.832;4.346;2022-09-11T09:40:03;47.75;;;33.35;;
24337;SDS011;12457;50.832;4.346;2022-09-11T09:45:50;45.53;;;33.13;;
24337;SDS011;12457;50.832;4.346;2022-09-11T09:48:39;38.90;;;29.27;;
24337;SDS011;12457;50.832;4.346;2022-09-11T09:51:08;39.33;;;30.20;;
24337;SDS011;12457;50.832;4.346;2022-09-11T09:53:40;36.90;;;28.02;;
24337;SDS011;12457;50.832;4.346;2022-09-11T09:56:11;38.85;;;28.13;;
24337;SDS011;12457;50.832;4.346;2022-09-11T09:58:59;38.22;;;28.25;;
24337;SDS011;12457;50.832;4.346;2022-09-11T10:04:19;34.60;;;27.02;;
24337;SDS011;12457;50.832;4.346;2022-09-11T10:06:45;54.33;;;37.80;;
24337;SDS011;12457;50.832;4.346;2022-09-11T10:09:23;37.38;;;27.73;;
24337;SDS011;12457;50.832;4.346;2022-09-11T10:12:00;37.45;;;26.75;;
24337;SDS011;12457;50.832;4.346;2022-09-11T10:14:44;36.78;;;27.88;;
24337;SDS011;12457;50.832;4.346;2022-09-11T10:17:19;40.67;;;28.90;;
24337;SDS011;12457;50.832;4.346;2022-09-11T10:19:46;47.13;;;33.13;;
24337;SDS011;12457;50.832;4.346;2022-09-11T10:22:23;49.80;;;36.45;;
24337;SDS011;12457;50.832;4.346;2022-09-11T10:25:07;50.97;;;36.00;;
24337;SDS011;12457;50.832;4.346;2022-09-11T10:27:48;44.58;;;32.28;;
24337;SDS011;12457;50.832;4.346;2022-09-11T10:30:28;43.30;;;32.65;;
24337;SDS011;12457;50.832;4.346;2022-09-11T10:33:24;37.88;;;30.50;;
24337;SDS011;12457;50.832;4.346;2022-09-11T10:35:53;84.68;;;56.65;;
24337;SDS011;12457;50.832;4.346;2022-09-11T10:38:28;36.03;;;27.10;;
24337;SDS011;12457;50.832;4.346;2022-09-11T10:41:18;33.88;;;24.70;;
24337;SDS011;12457;50.832;4.346;2022-09-11T10:43:59;31.25;;;21.83;;
24337;SDS011;12457;50.832;4.346;2022-09-11T10:46:36;55.83;;;38.20;;
24337;SDS011;12457;50.832;4.346;2022-09-11T10:51:31;26.52;;;19.98;;
24337;SDS011;12457;50.832;4.346;2022-09-11T10:59:23;30.13;;;21.50;;
24337;SDS011;12457;50.832;4.346;2022-09-11T11:02:18;35.30;;;23.00;;
24337;SDS011;12457;50.832;4.346;2022-09-11T11:04:56;27.15;;;21.75;;
24337;SDS011;12457;50.832;4.346;2022-09-11T11:15:53;20.90;;;12.52;;
24337;SDS011;12457;50.832;4.346;2022-09-11T11:21:29;19.15;;;11.05;;
24337;SDS011;12457;50.832;4.346;2022-09-11T11:32:59;13.25;;;9.40;;
24337;SDS011;12457;50.832;4.346;2022-09-11T11:35:57;25.42;;;18.45;;
24337;SDS011;12457;50.832;4.346;2022-09-11T11:41:02;17.00;;;12.52;;
24337;SDS011;12457;50.832;4.346;2022-09-11T11:43:34;16.45;;;12.40;;
24337;SDS011;12457;50.832;4.346;2022-09-11T11:46:10;14.50;;;10.23;;
24337;SDS011;12457;50.832;4.346;2022-09-11T11:54:23;10.30;;;6.90;;
24337;SDS011;12457;50.832;4.346;2022-09-11T11:56:56;18.33;;;11.32;;
24337;SDS011;12457;50.832;4.346;2022-09-11T12:02:29;10.35;;;8.23;;
24337;SDS011;12457;50.832;4.346;2022-09-11T12:05:12;21.88;;;14.68;;
24337;SDS011;12457;50.832;4.346;2022-09-11T12:07:48;12.80;;;7.70;;
24337;SDS011;12457;50.832;4.346;2022-09-11T12:10:31;14.25;;;8.43;;
24337;SDS011;12457;50.832;4.346;2022-09-11T12:13:04;13.05;;;8.68;;
24337;SDS011;12457;50.832;4.346;2022-09-11T12:15:32;12.13;;;8.95;;
24337;SDS011;12457;50.832;4.346;2022-09-11T12:20:30;11.75;;;7.50;;
24337;SDS011;12457;50.832;4.346;2022-09-11T12:22:58;9.27;;;6.45;;
24337;SDS011;12457;50.832;4.346;2022-09-11T12:28:38;19.45;;;13.55;;
24337;SDS011;12457;50.832;4.346;2022-09-11T12:36:30;5.63;;;4.80;;
24337;SDS011;12457;50.832;4.346;2022-09-11T12:39:05;6.07;;;5.20;;
24337;SDS011;12457;50.832;4.346;2022-09-11T12:41:48;8.57;;;5.55;;
24337;SDS011;12457;50.832;4.346;2022-09-11T12:44:27;6.10;;;4.90;;
24337;SDS011;12457;50.832;4.346;2022-09-11T12:49:20;8.45;;;5.60;;
24337;SDS011;12457;50.832;4.346;2022-09-11T12:51:52;7.22;;;4.45;;
24337;SDS011;12457;50.832;4.346;2022-09-11T12:54:27;6.05;;;4.53;;
24337;SDS011;12457;50.832;4.346;2022-09-11T12:59:36;7.88;;;5.45;;
24337;SDS011;12457;50.832;4.346;2022-09-11T13:05:02;7.30;;;4.60;;
24337;SDS011;12457;50.832;4.346;2022-09-11T13:07:37;5.55;;;4.28;;
24337;SDS011;12457;50.832;4.346;2022-09-11T13:10:08;7.95;;;4.43;;
24337;SDS011;12457;50.832;4.346;2022-09-11T13:12:52;6.13;;;4.32;;
24337;SDS011;12457;50.832;4.346;2022-09-11T13:23:33;6.65;;;4.50;;
24337;SDS011;12457;50.832;4.346;2022-09-11T13:25:59;6.90;;;4.45;;
24337;SDS011;12457;50.832;4.346;2022-09-11T13:28:26;6.97;;;3.90;;
24337;SDS011;12457;50.832;4.346;2022-09-11T13:30:59;6.70;;;4.50;;
24337;SDS011;12457;50.832;4.346;2022-09-11T13:33:27;10.10;;;4.88;;
24337;SDS011;12457;50.832;4.346;2022-09-11T13:35:58;6.57;;;4.70;;
24337;SDS011;12457;50.832;4.346;2022-09-11T13:38:30;5.80;;;4.88;;
24337;SDS011;12457;50.832;4.346;2022-09-11T13:41:02;8.18;;;5.65;;
24337;SDS011;12457;50.832;4.346;2022-09-11T13:43:40;6.03;;;4.57;;
24337;SDS011;12457;50.832;4.346;2022-09-11T13:48:44;7.25;;;5.18;;
24337;SDS011;12457;50.832;4.346;2022-09-11T13:51:14;5.15;;;3.72;;
24337;SDS011;12457;50.832;4.346;2022-09-11T13:53:43;5.95;;;5.15;;
24337;SDS011;12457;50.832;4.346;2022-09-11T14:01:59;5.15;;;2.72;;
24337;SDS011;12457;50.832;4.346;2022-09-11T14:04:27;6.70;;;3.75;;
24337;SDS011;12457;50.832;4.346;2022-09-11T14:06:54;6.55;;;4.00;;
24337;SDS011;12457;50.832;4.346;2022-09-11T14:09:20;10.95;;;4.45;;
24337;SDS011;12457;50.832;4.346;2022-09-11T14:11:47;7.32;;;4.05;;
24337;SDS011;12457;50.832;4.346;2022-09-11T14:14:23;5.80;;;3.38;;
24337;SDS011;12457;50.832;4.346;2022-09-11T14:16:55;10.30;;;7.95;;
24337;SDS011;12457;50.832;4.346;2022-09-11T14:19:26;4.93;;;4.13;;
24337;SDS011;12457;50.832;4.346;2022-09-11T14:21:58;6.32;;;4.15;;
24337;SDS011;12457;50.832;4.346;2022-09-11T14:24:37;5.75;;;3.70;;
24337;SDS011;12457;50.832;4.346;2022-09-11T14:27:32;4.38;;;3.25;;
24337;SDS011;12457;50.832;4.346;2022-09-11T14:29:56;4.63;;;3.40;;
24337;SDS011;12457;50.832;4.346;2022-09-11T14:35:00;7.72;;;5.18;;
24337;SDS011;12457;50.832;4.346;2022-09-11T14:37:28;8.60;;;3.60;;
24337;SDS011;12457;50.832;4.346;2022-09-11T14:39:58;7.10;;;3.30;;
24337;SDS011;12457;50.832;4.346;2022-09-11T14:42:27;4.38;;;3.60;;
24337;SDS011;12457;50.832;4.346;2022-09-11T14:44:54;5.90;;;5.30;;
24337;SDS011;12457;50.832;4.346;2022-09-11T14:47:21;5.68;;;4.60;;
24337;SDS011;12457;50.832;4.346;2022-09-11T14:49:49;7.47;;;4.05;;
24337;SDS011;12457;50.832;4.346;2022-09-11T14:52:18;5.60;;;4.25;;
24337;SDS011;12457;50.832;4.346;2022-09-11T14:54:49;4.25;;;3.55;;
24337;SDS011;12457;50.832;4.346;2022-09-11T14:57:22;6.18;;;5.10;;
24337;SDS011;12457;50.832;4.346;2022-09-11T14:59:51;4.43;;;4.00;;
24337;SDS011;12457;50.832;4.346;2022-09-11T15:02:23;8.88;;;5.28;;
24337;SDS011;12457;50.832;4.346;2022-09-11T15:04:51;8.82;;;4.57;;
24337;SDS011;12457;50.832;4.346;2022-09-11T15:07:18;5.10;;;3.53;;
24337;SDS011;12457;50.832;4.346;2022-09-11T15:09:47;7.80;;;4.88;;
24337;SDS011;12457;50.832;4.346;2022-09-11T15:12:17;5.32;;;4.00;;
24337;SDS011;12457;50.832;4.346;2022-09-11T15:14:44;6.65;;;3.60;;
24337;SDS011;12457;50.832;4.346;2022-09-11T15:17:11;7.10;;;3.20;;
24337;SDS011;12457;50.832;4.346;2022-09-11T15:19:41;7.15;;;2.65;;
24337;SDS011;12457;50.832;4.346;2022-09-11T15:22:10;3.30;;;2.42;;
24337;SDS011;12457;50.832;4.346;2022-09-11T15:24:35;2.72;;;2.30;;
24337;SDS011;12457;50.832;4.346;2022-09-11T15:27:04;9.43;;;6.50;;
24337;SDS011;12457;50.832;4.346;2022-09-11T15:29:30;3.13;;;2.35;;
24337;SDS011;12457;50.832;4.346;2022-09-11T15:31:56;7.55;;;4.95;;
24337;SDS011;12457;50.832;4.346;2022-09-11T15:34:22;5.80;;;2.40;;
24337;SDS011;12457;50.832;4.346;2022-09-11T15:36:48;4.15;;;2.53;;
24337;SDS011;12457;50.832;4.346;2022-09-11T15:39:19;4.47;;;4.07;;
24337;SDS011;12457;50.832;4.346;2022-09-11T15:41:45;3.72;;;2.70;;
24337;SDS011;12457;50.832;4.346;2022-09-11T15:44:21;6.50;;;5.15;;
24337;SDS011;12457;50.832;4.346;2022-09-11T15:46:48;3.78;;;3.30;;
24337;SDS011;12457;50.832;4.346;2022-09-11T15:49:19;3.65;;;2.90;;
24337;SDS011;12457;50.832;4.346;2022-09-11T15:51:46;5.05;;;2.97;;
24337;SDS011;12457;50.832;4.346;2022-09-11T15:54:12;7.97;;;2.65;;
24337;SDS011;12457;50.832;4.346;2022-09-11T15:56:41;7.75;;;3.70;;
24337;SDS011;12457;50.832;4.346;2022-09-11T15:59:10;9.65;;;5.22;;
24337;SDS011;12457;50.832;4.346;2022-09-11T16:01:37;4.65;;;2.55;;
24337;SDS011;12457;50.832;4.346;2022-09-11T16:04:04;5.65;;;1.73;;
24337;SDS011;12457;50.832;4.346;2022-09-11T16:06:32;2.38;;;1.67;;
24337;SDS011;12457;50.832;4.346;2022-09-11T16:09:05;7.68;;;2.92;;
24337;SDS011;12457;50.832;4.346;2022-09-11T16:15:12;4.13;;;2.38;;
24337;SDS011;12457;50.832;4.346;2022-09-11T16:17:37;3.33;;;2.42;;
24337;SDS011;12457;50.832;4.346;2022-09-11T16:20:03;5.80;;;2.70;;
24337;SDS011;12457;50.832;4.346;2022-09-11T16:22:30;4.05;;;2.20;;
24337;SDS011;12457;50.832;4.346;2022-09-11T16:24:56;3.22;;;2.75;;
24337;SDS011;12457;50.832;4.346;2022-09-11T16:27:23;1.83;;;1.63;;
24337;SDS011;12457;50.832;4.346;2022-09-11T16:29:49;3.92;;;2.13;;
24337;SDS011;12457;50.832;4.346;2022-09-11T16:32:15;1.98;;;1.65;;
24337;SDS011;12457;50.832;4.346;2022-09-11T16:34:51;4.78;;;2.40;;
24337;SDS011;12457;50.832;4.346;2022-09-11T16:37:18;9.73;;;3.85;;
24337;SDS011;12457;50.832;4.346;2022-09-11T16:39:49;10.07;;;5.90;;
24337;SDS011;12457;50.832;4.346;2022-09-11T16:42:18;8.52;;;5.25;;
24337;SDS011;12457;50.832;4.346;2022-09-11T16:44:47;8.07;;;3.33;;
24337;SDS011;12457;50.832;4.346;2022-09-11T16:47:13;8.50;;;3.78;;
24337;SDS011;12457;50.832;4.346;2022-09-11T16:49:40;4.88;;;3.10;;
24337;SDS011;12457;50.832;4.346;2022-09-11T16:52:08;2.95;;;2.30;;
24337;SDS011;12457;50.832;4.346;2022-09-11T16:54:35;4.32;;;3.10;;
24337;SDS011;12457;50.832;4.346;2022-09-11T16:57:01;4.63;;;3.00;;
24337;SDS011;12457;50.832;4.346;2022-09-11T16:59:26;8.73;;;2.75;;
24337;SDS011;12457;50.832;4.346;2022-09-11T17:01:52;9.57;;;3.70;;